createdAt,value
2023-08-29T00:00:23.390Z,1.55
2023-08-29T00:02:54.183Z,1.17
2023-08-29T00:05:22.515Z,1.42
2023-08-29T00:07:50.906Z,1.23
2023-08-29T00:10:19.191Z,1.40
2023-08-29T00:12:47.390Z,1.48
2023-08-29T00:15:15.644Z,1.60
2023-08-29T00:17:44.897Z,1.35
2023-08-29T00:20:14.542Z,1.42
2023-08-29T00:22:42.606Z,1.42
2023-08-29T00:25:10.833Z,1.50
2023-08-29T00:27:39.182Z,1.40
2023-08-29T00:30:08.999Z,1.13
2023-08-29T00:32:37.133Z,1.23
2023-08-29T00:35:06.375Z,1.30
2023-08-29T00:37:35.887Z,1.20
2023-08-29T00:40:04.874Z,1.48
2023-08-29T00:42:33.036Z,1.50
2023-08-29T00:45:01.339Z,1.13
2023-08-29T00:47:30.157Z,1.60
2023-08-29T00:49:58.370Z,1.27
2023-08-29T00:52:26.755Z,1.33
2023-08-29T00:54:56.453Z,1.50
2023-08-29T00:57:25.258Z,1.38
2023-08-29T00:59:53.482Z,1.08
2023-08-29T01:02:22.242Z,1.08
2023-08-29T01:04:50.484Z,1.30
2023-08-29T01:07:18.783Z,1.20
2023-08-29T01:09:47.254Z,1.20
2023-08-29T01:12:19.989Z,1.33
2023-08-29T01:14:52.860Z,1.40
2023-08-29T01:17:25.814Z,1.40
2023-08-29T01:19:55.010Z,1.20
2023-08-29T01:22:36.618Z,1.20
2023-08-29T01:25:14.102Z,1.27
2023-08-29T01:27:44.541Z,1.25
2023-08-29T01:30:13.077Z,1.42
2023-08-29T01:32:42.044Z,1.27
2023-08-29T01:35:16.546Z,1.30
2023-08-29T01:37:44.647Z,1.15
2023-08-29T01:40:13.218Z,1.60
2023-08-29T01:42:41.368Z,1.55
2023-08-29T01:45:11.598Z,1.80
2023-08-29T01:47:39.763Z,1.20
2023-08-29T01:50:09.717Z,1.50
2023-08-29T01:52:38.052Z,1.23
2023-08-29T01:55:09.607Z,1.20
2023-08-29T01:57:38.596Z,1.58
2023-08-29T02:00:08.649Z,1.38
2023-08-29T02:02:38.333Z,1.63
2023-08-29T02:05:07.191Z,1.60
2023-08-29T02:07:35.468Z,1.65
2023-08-29T02:10:03.932Z,1.35
2023-08-29T02:12:32.129Z,1.70
2023-08-29T02:15:00.406Z,1.60
2023-08-29T02:17:28.856Z,1.30
2023-08-29T02:19:58.498Z,1.30
2023-08-29T02:22:26.567Z,1.50
2023-08-29T02:24:54.629Z,1.50
2023-08-29T02:27:22.703Z,1.65
2023-08-29T02:29:51.845Z,1.67
2023-08-29T02:32:21.444Z,1.88
2023-08-29T02:34:49.685Z,1.63
2023-08-29T02:37:19.148Z,1.40
2023-08-29T02:39:47.198Z,1.88
2023-08-29T02:42:15.712Z,1.50
2023-08-29T02:44:44.019Z,1.98
2023-08-29T02:47:12.102Z,1.50
2023-08-29T02:49:40.177Z,1.88
2023-08-29T02:52:08.236Z,1.75
2023-08-29T02:54:37.756Z,1.83
2023-08-29T02:57:06.337Z,1.70
2023-08-29T02:59:34.495Z,1.45
2023-08-29T03:02:04.250Z,1.63
2023-08-29T03:04:32.604Z,1.50
2023-08-29T03:07:00.788Z,1.42
2023-08-29T03:09:30.977Z,1.60
2023-08-29T03:12:00.702Z,1.17
2023-08-29T03:14:28.987Z,1.20
2023-08-29T03:16:57.138Z,1.48
2023-08-29T03:19:25.306Z,1.27
2023-08-29T03:21:53.391Z,1.27
2023-08-29T03:24:21.507Z,1.50
2023-08-29T03:26:49.726Z,1.60
2023-08-29T03:29:19.498Z,1.45
2023-08-29T03:31:47.629Z,1.60
2023-08-29T03:34:15.752Z,1.60
2023-08-29T03:36:43.926Z,1.52
2023-08-29T03:39:12.153Z,1.60
2023-08-29T03:41:40.292Z,2.00
2023-08-29T03:44:08.390Z,1.63
2023-08-29T03:46:37.797Z,1.50
2023-08-29T03:49:06.083Z,1.60
2023-08-29T03:51:34.366Z,1.33
2023-08-29T03:54:02.528Z,1.58
2023-08-29T03:56:30.632Z,1.70
2023-08-29T03:58:58.710Z,2.17
2023-08-29T04:01:27.496Z,1.95
2023-08-29T04:03:57.403Z,1.90
2023-08-29T04:06:25.758Z,1.80
2023-08-29T04:08:55.717Z,1.80
2023-08-29T04:11:24.048Z,1.70
2023-08-29T04:13:52.227Z,1.85
2023-08-29T04:16:20.313Z,1.67
2023-08-29T04:18:48.463Z,1.60
2023-08-29T04:21:18.000Z,1.80
2023-08-29T04:23:46.152Z,2.00
2023-08-29T04:26:14.374Z,2.33
2023-08-29T04:28:42.598Z,1.50
2023-08-29T04:31:11.471Z,2.30
2023-08-29T04:33:40.213Z,2.00
2023-08-29T04:36:10.337Z,1.20
2023-08-29T04:38:39.859Z,1.48
2023-08-29T04:41:07.933Z,1.45
2023-08-29T04:43:36.053Z,1.60
2023-08-29T04:46:04.176Z,1.98
2023-08-29T04:48:32.303Z,1.77
2023-08-29T04:51:00.451Z,1.90
2023-08-29T04:53:28.546Z,1.40
2023-08-29T04:56:02.550Z,2.25
2023-08-29T04:58:31.438Z,1.67
2023-08-29T05:01:00.063Z,1.98
2023-08-29T05:03:28.520Z,1.70
2023-08-29T05:05:58.724Z,1.80
2023-08-29T05:08:26.900Z,1.73
2023-08-29T05:10:55.061Z,2.20
2023-08-29T05:13:24.522Z,1.90
2023-08-29T05:15:52.571Z,1.90
2023-08-29T05:18:20.626Z,1.90
2023-08-29T05:20:48.896Z,1.75
2023-08-29T05:23:16.896Z,1.83
2023-08-29T05:25:44.926Z,2.17
2023-08-29T05:28:12.959Z,1.73
2023-08-29T05:30:44.001Z,1.50
2023-08-29T05:33:12.231Z,2.10
2023-08-29T05:35:40.371Z,1.80
2023-08-29T05:38:08.744Z,2.20
2023-08-29T05:40:36.952Z,1.70
2023-08-29T05:43:05.176Z,2.53
2023-08-29T05:45:33.190Z,1.92
2023-08-29T05:48:02.612Z,2.03
2023-08-29T05:50:30.684Z,1.77
2023-08-29T05:52:58.869Z,1.90
2023-08-29T05:55:26.905Z,1.55
2023-08-29T05:57:55.211Z,1.50
2023-08-29T06:00:23.358Z,1.67
2023-08-29T06:02:53.194Z,1.73
2023-08-29T06:05:22.716Z,2.10
2023-08-29T06:07:53.182Z,2.00
2023-08-29T06:10:23.901Z,2.47
2023-08-29T06:12:51.951Z,2.90
2023-08-29T06:15:20.098Z,2.60
2023-08-29T06:17:48.169Z,2.00
2023-08-29T06:20:16.243Z,2.35
2023-08-29T06:22:45.654Z,2.80
2023-08-29T06:25:14.148Z,2.65
2023-08-29T06:27:42.207Z,2.80
2023-08-29T06:30:14.152Z,3.00
2023-08-29T06:32:42.826Z,2.80
2023-08-29T06:35:12.533Z,2.13
2023-08-29T06:37:40.694Z,3.05
2023-08-29T06:40:12.234Z,2.85
2023-08-29T06:42:40.347Z,3.05
2023-08-29T06:45:09.648Z,2.13
2023-08-29T06:47:37.668Z,2.78
2023-08-29T06:50:05.975Z,3.30
2023-08-29T06:52:34.019Z,2.78
2023-08-29T06:55:02.028Z,2.40
2023-08-29T06:57:31.460Z,3.13
2023-08-29T06:59:59.449Z,2.95
2023-08-29T07:02:27.974Z,3.45
2023-08-29T07:04:56.308Z,2.40
2023-08-29T07:07:24.391Z,2.70
2023-08-29T07:09:52.451Z,3.15
2023-08-29T07:12:21.613Z,3.00
2023-08-29T07:14:51.156Z,2.70
2023-08-29T07:17:19.330Z,3.72
2023-08-29T07:19:47.529Z,2.70
2023-08-29T07:24:46.792Z,2.75
2023-08-29T07:27:14.975Z,2.63
2023-08-29T07:29:44.127Z,3.17
2023-08-29T07:32:13.593Z,3.60
2023-08-29T07:34:41.917Z,3.53
2023-08-29T07:37:10.378Z,3.17
2023-08-29T07:39:38.654Z,3.22
2023-08-29T07:42:07.107Z,4.25
2023-08-29T07:44:35.223Z,2.90
2023-08-29T07:47:14.817Z,2.67
2023-08-29T07:49:44.882Z,2.63
2023-08-29T07:52:12.921Z,2.95
2023-08-29T07:54:40.983Z,2.85
2023-08-29T07:57:09.020Z,3.40
2023-08-29T07:59:37.028Z,2.65
2023-08-29T08:02:05.962Z,3.05
2023-08-29T08:04:33.997Z,2.88
2023-08-29T08:07:04.125Z,3.95
2023-08-29T08:09:32.614Z,3.63
2023-08-29T08:12:01.533Z,3.00
2023-08-29T08:14:29.639Z,4.00
2023-08-29T08:16:57.713Z,4.05
2023-08-29T08:19:25.880Z,3.08
2023-08-29T08:21:53.933Z,2.90
2023-08-29T08:24:23.332Z,3.30
2023-08-29T08:26:51.352Z,2.63
2023-08-29T08:29:19.386Z,3.30
2023-08-29T08:31:47.850Z,3.47
2023-08-29T08:34:15.985Z,3.10
2023-08-29T08:36:44.183Z,2.72
2023-08-29T08:39:12.371Z,3.25
2023-08-29T08:41:42.161Z,2.78
2023-08-29T08:44:12.845Z,2.80
2023-08-29T08:46:41.342Z,2.80
2023-08-29T08:49:10.113Z,2.25
2023-08-29T08:51:39.908Z,2.60
2023-08-29T08:54:08.637Z,3.72
2023-08-29T08:56:36.841Z,2.85
2023-08-29T08:59:06.983Z,3.25
2023-08-29T09:01:35.293Z,3.95
2023-08-29T09:04:04.274Z,3.08
2023-08-29T09:06:32.655Z,2.80
2023-08-29T09:09:18.948Z,3.53
2023-08-29T09:11:53.462Z,3.05
2023-08-29T09:14:23.583Z,3.58
2023-08-29T09:16:55.781Z,3.53
2023-08-29T09:19:24.690Z,3.17
2023-08-29T09:21:53.317Z,3.30
2023-08-29T09:24:25.433Z,3.00
2023-08-29T09:26:54.007Z,2.90
2023-08-29T09:29:25.153Z,3.83
2023-08-29T09:31:53.412Z,2.70
2023-08-29T09:34:29.033Z,3.20
2023-08-29T09:36:57.698Z,2.90
2023-08-29T09:39:26.273Z,2.95
2023-08-29T09:42:03.037Z,2.10
2023-08-29T09:44:37.132Z,2.50
2023-08-29T09:47:05.637Z,2.10
2023-08-29T09:49:43.235Z,1.63
2023-08-29T09:52:11.914Z,1.42
2023-08-29T09:54:46.174Z,2.05
2023-08-29T09:57:16.015Z,2.00
2023-08-29T09:59:45.985Z,1.80
2023-08-29T10:02:15.950Z,1.70
2023-08-29T10:04:46.904Z,1.33
2023-08-29T10:07:17.535Z,1.40
2023-08-29T10:09:46.107Z,1.10
2023-08-29T10:12:15.061Z,9.00
2023-08-29T10:14:46.107Z,3.38
2023-08-29T10:17:29.575Z,1.73
2023-08-29T10:20:00.166Z,0.95
2023-08-29T10:22:31.153Z,1.20
2023-08-29T10:25:01.966Z,0.90
2023-08-29T10:27:30.126Z,1.10
2023-08-29T10:29:59.730Z,0.88
2023-08-29T10:32:28.944Z,0.82
2023-08-29T10:34:56.987Z,1.00
2023-08-29T10:37:27.090Z,1.85
2023-08-29T10:39:55.151Z,1.13
2023-08-29T10:42:23.417Z,1.00
2023-08-29T10:44:52.103Z,0.80
2023-08-29T10:47:25.039Z,1.00
2023-08-29T10:49:59.286Z,1.13
2023-08-29T10:52:37.898Z,0.95
2023-08-29T10:55:09.928Z,1.00
2023-08-29T10:57:38.152Z,0.85
2023-08-29T11:00:18.403Z,1.00
2023-08-29T11:02:48.855Z,0.90
2023-08-29T11:05:17.817Z,0.85
2023-08-29T11:10:17.924Z,0.90
2023-08-29T11:13:13.769Z,0.68
2023-08-29T11:16:08.065Z,0.73
2023-08-29T11:18:37.857Z,0.85
2023-08-29T11:21:07.799Z,1.08
2023-08-29T11:23:40.822Z,0.90
2023-08-29T11:26:09.596Z,0.60
2023-08-29T11:28:42.770Z,0.50
2023-08-29T11:31:11.156Z,0.55
2023-08-29T11:33:40.934Z,0.80
2023-08-29T11:36:11.040Z,0.70
2023-08-29T11:38:39.822Z,1.00
2023-08-29T11:41:17.702Z,0.93
2023-08-29T11:44:20.829Z,0.60
2023-08-29T11:46:45.724Z,0.75
2023-08-29T11:49:17.195Z,0.60
2023-08-29T11:51:46.234Z,0.90
2023-08-29T11:54:38.583Z,0.98
2023-08-29T11:57:08.642Z,2.97
2023-08-29T11:59:40.488Z,0.93
2023-08-29T12:02:10.184Z,0.70
2023-08-29T12:04:43.120Z,0.60
2023-08-29T12:07:12.539Z,0.70
2023-08-29T12:09:42.629Z,0.93
2023-08-29T12:12:11.922Z,0.80
2023-08-29T12:14:52.804Z,0.60
2023-08-29T12:17:21.790Z,0.70
2023-08-29T12:19:51.389Z,0.80
2023-08-29T12:22:31.431Z,0.90
2023-08-29T12:24:59.800Z,0.93
2023-08-29T12:27:28.942Z,0.70
2023-08-29T12:29:57.151Z,1.73
2023-08-29T12:32:28.272Z,1.50
2023-08-29T12:34:58.051Z,0.88
2023-08-29T12:37:26.887Z,0.70
2023-08-29T12:39:55.013Z,0.68
2023-08-29T12:42:23.150Z,0.52
2023-08-29T12:44:51.540Z,0.90
2023-08-29T12:47:19.633Z,0.60
2023-08-29T12:49:47.630Z,0.60
2023-08-29T12:52:17.324Z,0.82
2023-08-29T12:54:45.478Z,1.27
2023-08-29T12:57:13.540Z,0.75
2023-08-29T12:59:41.635Z,0.70
2023-08-29T13:02:09.899Z,0.43
2023-08-29T13:04:37.969Z,0.43
2023-08-29T13:07:06.452Z,0.50
2023-08-29T13:09:38.312Z,0.70
2023-08-29T13:12:08.695Z,0.40
2023-08-29T13:14:39.725Z,0.68
2023-08-29T13:17:11.940Z,0.50
2023-08-29T13:19:42.139Z,0.60
2023-08-29T13:22:10.278Z,0.60
2023-08-29T13:24:39.959Z,0.40
2023-08-29T13:27:09.638Z,0.60
2023-08-29T13:29:37.843Z,0.60
2023-08-29T13:32:06.493Z,0.77
2023-08-29T13:34:35.446Z,0.70
2023-08-29T13:37:03.590Z,0.60
2023-08-29T13:39:31.682Z,0.73
2023-08-29T13:42:01.153Z,0.38
2023-08-29T13:44:29.482Z,0.57
2023-08-29T13:46:57.605Z,0.50
2023-08-29T13:49:25.686Z,0.60
2023-08-29T13:51:55.856Z,0.50
2023-08-29T13:54:25.822Z,0.43
2023-08-29T13:56:54.455Z,0.60
2023-08-29T13:59:23.854Z,0.50
2023-08-29T14:01:52.029Z,0.60
2023-08-29T14:04:20.058Z,0.40
2023-08-29T14:06:48.102Z,0.50
2023-08-29T14:09:16.371Z,0.60
2023-08-29T14:11:44.394Z,0.25
2023-08-29T14:14:13.082Z,0.70
2023-08-29T14:16:43.739Z,0.50
2023-08-29T14:19:11.884Z,0.60
2023-08-29T14:21:40.021Z,0.40
2023-08-29T14:24:09.075Z,0.57
2023-08-29T14:26:38.009Z,0.50
2023-08-29T14:29:08.005Z,0.50
2023-08-29T14:31:36.115Z,0.40
2023-08-29T14:34:05.916Z,0.55
2023-08-29T14:36:34.145Z,0.47
2023-08-29T14:39:03.425Z,0.50
2023-08-29T14:41:31.613Z,0.52
2023-08-29T14:43:59.667Z,0.60
2023-08-29T14:46:27.926Z,0.50
2023-08-29T14:48:57.061Z,0.70
2023-08-29T14:51:26.551Z,0.60
2023-08-29T14:53:54.632Z,0.50
2023-08-29T14:56:22.665Z,0.60
2023-08-29T14:58:50.679Z,0.60
2023-08-29T15:01:18.768Z,0.65
2023-08-29T15:03:47.119Z,1.00
2023-08-29T15:06:16.560Z,0.90
2023-08-29T15:08:45.999Z,1.05
2023-08-29T15:11:14.122Z,8.00
2023-08-29T15:13:42.265Z,2.10
2023-08-29T15:16:10.482Z,1.25
2023-08-29T15:18:38.755Z,0.60
2023-08-29T15:21:08.039Z,0.60
2023-08-29T15:23:36.250Z,1.25
2023-08-29T15:26:06.185Z,0.73
2023-08-29T15:28:37.341Z,1.10
2023-08-29T15:31:05.514Z,1.20
2023-08-29T15:33:33.894Z,1.38
2023-08-29T15:36:02.231Z,1.90
2023-08-29T15:38:30.715Z,2.03
2023-08-29T15:40:59.208Z,1.50
2023-08-29T15:43:28.972Z,1.40
2023-08-29T15:45:58.000Z,1.25
2023-08-29T15:48:26.105Z,1.20
2023-08-29T15:50:55.355Z,1.23
2023-08-29T15:53:23.520Z,2.15
2023-08-29T15:55:52.687Z,10.23
2023-08-29T15:58:21.641Z,2.78
2023-08-29T16:00:51.200Z,1.42
2023-08-29T16:03:19.440Z,1.50
2023-08-29T16:05:47.699Z,0.90
2023-08-29T16:08:15.772Z,1.35
2023-08-29T16:10:44.393Z,1.10
2023-08-29T16:13:12.756Z,0.95
2023-08-29T16:15:40.941Z,1.02
2023-08-29T16:18:10.847Z,1.20
2023-08-29T16:20:42.349Z,1.33
2023-08-29T16:23:11.764Z,1.40
2023-08-29T16:25:40.845Z,1.05
2023-08-29T16:28:09.301Z,1.10
2023-08-29T16:30:37.694Z,1.10
2023-08-29T16:33:08.220Z,2.20
2023-08-29T16:35:38.050Z,1.55
2023-08-29T16:38:06.674Z,1.50
2023-08-29T16:40:35.095Z,1.30
2023-08-29T16:43:03.414Z,1.17
2023-08-29T16:45:31.527Z,1.52
2023-08-29T16:47:59.706Z,1.55
2023-08-29T16:50:28.785Z,1.67
2023-08-29T16:53:01.301Z,1.83
2023-08-29T16:55:31.560Z,1.60
2023-08-29T16:58:00.976Z,1.27
2023-08-29T17:00:30.198Z,1.00
2023-08-29T17:02:59.418Z,1.00
2023-08-29T17:05:27.837Z,1.10
2023-08-29T17:07:55.994Z,1.40
2023-08-29T17:10:25.636Z,0.90
2023-08-29T17:12:53.746Z,1.20
2023-08-29T17:15:22.632Z,1.27
2023-08-29T17:17:50.680Z,1.10
2023-08-29T17:20:19.229Z,1.08
2023-08-29T17:22:47.382Z,1.23
2023-08-29T17:25:15.571Z,1.10
2023-08-29T17:27:45.332Z,1.40
2023-08-29T17:30:14.441Z,1.27
2023-08-29T17:32:43.580Z,1.20
2023-08-29T17:35:11.725Z,1.25
2023-08-29T17:37:41.546Z,1.35
2023-08-29T17:40:13.121Z,1.00
2023-08-29T17:42:41.344Z,1.30
2023-08-29T17:45:12.357Z,1.02
2023-08-29T17:47:41.965Z,1.35
2023-08-29T17:50:12.158Z,1.40
2023-08-29T17:52:40.596Z,1.10
2023-08-29T17:55:09.297Z,1.02
2023-08-29T17:57:37.281Z,0.95
2023-08-29T18:00:06.217Z,1.27
2023-08-29T18:02:35.754Z,1.17
2023-08-29T18:05:04.065Z,1.10
2023-08-29T18:07:32.093Z,1.60
2023-08-29T18:10:12.756Z,1.00
2023-08-29T18:12:41.300Z,1.17
2023-08-29T18:15:11.305Z,1.33
2023-08-29T18:17:41.223Z,1.20
2023-08-29T18:20:10.090Z,1.10
2023-08-29T18:22:38.416Z,1.30
2023-08-29T18:25:07.069Z,1.10
2023-08-29T18:27:35.184Z,1.60
2023-08-29T18:30:03.863Z,1.17
2023-08-29T18:32:33.663Z,1.30
2023-08-29T18:35:03.140Z,1.27
2023-08-29T18:37:31.133Z,1.48
2023-08-29T18:39:59.155Z,1.58
2023-08-29T18:42:27.204Z,1.30
2023-08-29T18:44:55.232Z,1.27
2023-08-29T18:47:23.256Z,1.40
2023-08-29T18:49:51.333Z,1.13
2023-08-29T18:52:20.797Z,1.52
2023-08-29T18:54:48.905Z,1.08
2023-08-29T18:57:16.931Z,1.25
2023-08-29T18:59:44.994Z,1.25
2023-08-29T19:02:13.122Z,1.27
2023-08-29T19:04:43.888Z,1.30
2023-08-29T19:07:11.941Z,1.30
2023-08-29T19:09:41.479Z,1.25
2023-08-29T19:12:09.707Z,1.45
2023-08-29T19:14:37.993Z,1.30
2023-08-29T19:17:06.276Z,1.50
2023-08-29T19:19:34.431Z,1.23
2023-08-29T19:22:02.909Z,1.20
2023-08-29T19:24:31.059Z,1.27
2023-08-29T19:27:01.159Z,1.55
2023-08-29T19:29:29.332Z,1.40
2023-08-29T19:31:57.540Z,1.50
2023-08-29T19:34:25.728Z,1.38
2023-08-29T19:36:53.927Z,1.08
2023-08-29T19:39:24.043Z,1.30
2023-08-29T19:41:52.492Z,1.60
2023-08-29T19:44:22.037Z,1.30
2023-08-29T19:46:50.265Z,1.20
2023-08-29T19:49:18.658Z,1.42
2023-08-29T19:51:46.980Z,1.75
2023-08-29T19:54:15.369Z,1.25
2023-08-29T19:56:43.604Z,1.40
2023-08-29T19:59:11.762Z,1.80
2023-08-29T20:01:41.406Z,1.73
2023-08-29T20:04:10.417Z,1.75
2023-08-29T20:06:38.635Z,1.50
2023-08-29T20:09:07.346Z,1.50
2023-08-29T20:11:35.745Z,1.40
2023-08-29T20:14:04.037Z,1.70
2023-08-29T20:16:32.649Z,1.85
2023-08-29T20:19:02.288Z,1.73
2023-08-29T20:21:30.586Z,1.60
2023-08-29T20:24:02.846Z,1.67
2023-08-29T20:26:32.298Z,1.40
2023-08-29T20:29:01.259Z,1.83
2023-08-29T20:31:29.571Z,1.40
2023-08-29T20:33:57.788Z,1.67
2023-08-29T20:36:27.399Z,1.75
2023-08-29T20:38:56.100Z,1.40
2023-08-29T20:41:24.294Z,1.52
2023-08-29T20:43:52.356Z,1.60
2023-08-29T20:46:20.584Z,1.52
2023-08-29T20:48:52.287Z,1.98
2023-08-29T20:51:20.990Z,1.58
2023-08-29T20:53:51.206Z,1.63
2023-08-29T20:56:19.326Z,1.48
2023-08-29T20:58:47.753Z,1.85
2023-08-29T21:01:16.002Z,1.60
2023-08-29T21:03:44.591Z,1.73
2023-08-29T21:06:12.838Z,1.70
2023-08-29T21:08:41.021Z,1.77
2023-08-29T21:11:10.619Z,1.40
2023-08-29T21:13:38.659Z,1.17
2023-08-29T21:16:06.870Z,2.30
2023-08-29T21:18:35.132Z,2.30
2023-08-29T21:21:04.932Z,1.52
2023-08-29T21:23:34.799Z,1.98
2023-08-29T21:26:03.604Z,2.15
2023-08-29T21:28:33.195Z,1.73
2023-08-29T21:31:01.471Z,1.92
2023-08-29T21:33:29.745Z,1.60
2023-08-29T21:35:57.908Z,1.60
2023-08-29T21:38:26.015Z,1.80
2023-08-29T21:40:54.159Z,1.70
2023-08-29T21:43:23.594Z,1.70
2023-08-29T21:45:57.726Z,1.33
2023-08-29T21:48:26.217Z,1.95
2023-08-29T21:50:54.731Z,1.55
2023-08-29T21:53:22.972Z,1.58
2023-08-29T21:55:52.318Z,1.67
2023-08-29T21:58:21.042Z,1.98
2023-08-29T22:00:52.010Z,1.80
2023-08-29T22:03:23.191Z,1.80
2023-08-29T22:05:51.919Z,1.58
2023-08-29T22:08:20.876Z,1.98
2023-08-29T22:10:49.067Z,1.80
2023-08-29T22:13:17.173Z,1.73
2023-08-29T22:15:45.326Z,1.80
2023-08-29T22:18:14.262Z,1.45
2023-08-29T22:20:44.114Z,2.15
2023-08-29T22:23:12.194Z,2.10
2023-08-29T22:25:40.374Z,1.48
2023-08-29T22:28:08.855Z,1.75
2023-08-29T22:30:39.661Z,1.80
2023-08-29T22:33:09.324Z,1.67
2023-08-29T22:35:37.644Z,1.65
2023-08-29T22:38:07.576Z,1.58
2023-08-29T22:40:35.934Z,2.03
2023-08-29T22:43:04.135Z,1.50
2023-08-29T22:45:32.408Z,2.08
2023-08-29T22:48:00.649Z,1.77
2023-08-29T22:50:28.853Z,1.65
2023-08-29T22:52:57.012Z,1.92
2023-08-29T22:55:28.013Z,1.30
2023-08-29T22:57:56.177Z,2.08
2023-08-29T23:00:24.407Z,1.88
2023-08-29T23:02:52.779Z,1.92
2023-08-29T23:05:21.176Z,1.52
2023-08-29T23:07:49.540Z,2.20
2023-08-29T23:10:18.774Z,1.70
2023-08-29T23:12:48.379Z,1.73
2023-08-29T23:15:17.224Z,1.77
2023-08-29T23:17:46.603Z,1.77
2023-08-29T23:20:15.307Z,1.90
2023-08-29T23:22:46.546Z,2.30
2023-08-29T23:25:17.167Z,1.98
2023-08-29T23:27:45.489Z,2.05
2023-08-29T23:30:15.785Z,1.58
2023-08-29T23:32:44.449Z,1.88
2023-08-29T23:35:13.464Z,1.73
2023-08-29T23:37:41.694Z,1.98
2023-08-29T23:40:13.543Z,1.60
2023-08-29T23:42:41.799Z,1.80
2023-08-29T23:45:11.923Z,2.13
2023-08-29T23:47:41.834Z,2.08
2023-08-29T23:50:11.478Z,1.70
2023-08-29T23:52:39.697Z,1.60
2023-08-29T23:55:08.526Z,2.20
2023-08-29T23:57:36.685Z,2.05
